Time;durP1;ratioP1;P1;durP2;ratioP2;P2;SDS_P1;SDS_P2;PMS_P1;PMS_P2;Temp;Humidity;BMP_temperature;BMP_pressure;BME280_temperature;BME280_humidity;BME280_pressure;Samples;Min_cycle;Max_cycle;Signal;HPM_P1;HPM_P2
2023/03/20 00:01:12;;;;;;;1.13;0.40;;;;;;;8.34;100.00;98951.09;4896287;29;20234;-56
2023/03/20 00:03:40;;;;;;;0.67;0.23;;;;;;;8.36;100.00;98945.75;4934481;28;20256;-54
2023/03/20 00:06:14;;;;;;;0.60;0.30;;;;;;;8.37;100.00;98947.41;4940762;28;20323;-56
2023/03/20 00:08:44;;;;;;;0.20;0.20;;;;;;;8.37;100.00;98945.66;4938416;28;20308;-54
2023/03/20 00:11:27;;;;;;;2.10;0.30;;;;;;;8.37;100.00;98953.44;4942985;28;20241;-57
2023/03/20 00:13:55;;;;;;;1.17;0.30;;;;;;;8.37;100.00;98950.00;4941844;28;20229;-55
2023/03/20 00:16:24;;;;;;;3.77;0.30;;;;;;;8.40;100.00;98960.16;4943198;28;20225;-54
2023/03/20 00:18:55;;;;;;;0.47;0.40;;;;;;;8.37;100.00;98963.00;4941735;28;20237;-57
2023/03/20 00:21:21;;;;;;;1.63;0.40;;;;;;;8.39;100.00;98961.09;4944334;28;20225;-56
2023/03/20 00:23:48;;;;;;;1.80;0.50;;;;;;;8.37;100.00;98963.84;4942551;28;20241;-55
2023/03/20 00:26:17;;;;;;;1.23;0.60;;;;;;;8.35;100.00;98965.75;4946426;28;20694;-56
2023/03/20 00:28:45;;;;;;;1.27;0.40;;;;;;;8.34;100.00;98964.09;4941887;28;20323;-54
2023/03/20 00:31:20;;;;;;;1.07;0.60;;;;;;;8.36;100.00;98964.81;4925534;29;20239;-56
2023/03/20 00:33:47;;;;;;;0.87;0.40;;;;;;;8.37;100.00;98966.44;4924365;28;20320;-56
2023/03/20 00:36:15;;;;;;;2.57;0.63;;;;;;;8.39;100.00;98963.72;4942073;28;20234;-56
2023/03/20 00:38:42;;;;;;;0.57;0.43;;;;;;;8.47;100.00;98965.69;4924741;28;20239;-57
2023/03/20 00:41:21;;;;;;;0.77;0.50;;;;;;;8.49;100.00;98966.38;4931514;29;20235;-57
2023/03/20 00:43:51;;;;;;;1.03;0.63;;;;;;;8.51;100.00;98967.06;4941681;28;20317;-57
2023/03/20 00:46:18;;;;;;;4.10;0.80;;;;;;;8.49;100.00;98972.44;4943421;28;20240;-54
2023/03/20 00:48:46;;;;;;;0.87;0.80;;;;;;;8.51;100.00;98978.31;4923759;28;20234;-56
2023/03/20 00:51:13;;;;;;;2.53;0.60;;;;;;;8.49;100.00;98976.78;4928287;28;20260;-56
2023/03/20 00:53:41;;;;;;;1.43;0.60;;;;;;;8.49;100.00;98972.44;4940527;28;20312;-57
2023/03/20 00:56:27;;;;;;;1.27;0.70;;;;;;;8.47;100.00;98968.28;4943641;28;20237;-57
2023/03/20 00:58:54;;;;;;;1.00;0.83;;;;;;;8.46;100.00;98977.03;4941502;28;20236;-54
2023/03/20 01:01:21;;;;;;;2.40;0.77;;;;;;;8.46;100.00;98979.66;4926423;28;20221;-56
2023/03/20 01:03:47;;;;;;;0.80;0.63;;;;;;;8.41;100.00;98973.06;4925683;28;20233;-54
2023/03/20 01:06:15;;;;;;;5.97;0.97;;;;;;;8.47;100.00;98978.69;4942522;28;20233;-55
2023/03/20 01:08:43;;;;;;;2.30;1.00;;;;;;;8.46;100.00;98975.25;4941314;28;20248;-54
2023/03/20 01:11:12;;;;;;;0.80;0.60;;;;;;;8.44;100.00;98976.34;4942280;28;20242;-56
2023/03/20 01:13:40;;;;;;;1.27;0.90;;;;;;;8.39;100.00;98977.56;4941007;28;20236;-54
2023/03/20 01:16:19;;;;;;;3.33;0.90;;;;;;;8.38;100.00;98977.66;4943791;28;20339;-56
2023/03/20 01:18:48;;;;;;;3.20;0.90;;;;;;;8.39;100.00;98979.31;4923996;28;20245;-55
2023/03/20 01:21:14;;;;;;;1.57;0.80;;;;;;;8.36;100.00;98977.81;4926577;28;20719;-54
2023/03/20 01:23:42;;;;;;;1.60;0.87;;;;;;;8.34;100.00;98971.06;4923263;28;20333;-56
2023/03/20 01:26:24;;;;;;;1.33;1.00;;;;;;;8.34;100.00;98978.88;4926652;28;20331;-56
2023/03/20 01:28:51;;;;;;;3.13;1.30;;;;;;;8.34;100.00;98971.91;4942259;28;20623;-55
2023/03/20 01:31:19;;;;;;;3.07;1.40;;;;;;;8.33;100.00;98972.88;4924836;29;20232;-56
2023/03/20 01:33:46;;;;;;;3.97;1.60;;;;;;;8.34;100.00;98974.50;4921824;28;20296;-55
2023/03/20 01:36:15;;;;;;;2.33;1.40;;;;;;;8.37;100.00;98976.00;4923948;28;20229;-56
2023/03/20 01:38:44;;;;;;;3.10;1.50;;;;;;;8.36;100.00;98988.22;4923160;28;20241;-56
2023/03/20 01:41:16;;;;;;;4.03;1.50;;;;;;;8.37;100.00;98978.63;4942144;28;20245;-54
2023/03/20 01:43:44;;;;;;;2.50;1.30;;;;;;;8.38;100.00;98975.06;4922505;28;20327;-56
2023/03/20 01:46:18;;;;;;;2.47;1.40;;;;;;;8.37;100.00;98987.25;4943826;28;20316;-55
2023/03/20 01:49:05;;;;;;;1.97;1.10;;;;;;;8.39;100.00;98993.16;4924077;29;21619;-55
2023/03/20 01:51:34;;;;;;;2.37;1.10;;;;;;;8.40;100.00;98989.59;4923230;28;20626;-56
2023/03/20 01:54:12;;;;;;;2.70;1.10;;;;;;;8.40;100.00;98992.22;4924182;28;20592;-56
2023/03/20 01:56:54;;;;;;;2.97;1.50;;;;;;;8.42;100.00;98986.88;4925858;28;20605;-56
2023/03/20 01:59:25;;;;;;;1.67;1.17;;;;;;;8.44;100.00;99000.56;4925383;29;20239;-54
2023/03/20 02:01:52;;;;;;;1.57;1.00;;;;;;;8.44;100.00;98997.16;4939471;28;20223;-53
2023/03/20 02:04:26;;;;;;;2.83;1.23;;;;;;;8.45;100.00;98994.41;4924486;28;20240;-56
2023/03/20 02:06:58;;;;;;;2.93;1.30;;;;;;;8.47;100.00;98991.69;4922977;28;20237;-56
2023/03/20 02:09:39;;;;;;;1.97;1.20;;;;;;;8.58;100.00;98999.44;4923262;28;20232;-56
2023/03/20 02:12:11;;;;;;;2.50;1.13;;;;;;;8.53;100.00;98999.00;4925293;29;20258;-56
2023/03/20 02:14:39;;;;;;;3.27;1.17;;;;;;;8.53;100.00;99006.78;4921845;28;20233;-57
2023/03/20 02:17:21;;;;;;;1.33;1.10;;;;;;;8.52;100.00;99008.59;4925758;28;20230;-56
2023/03/20 02:20:06;;;;;;;2.23;1.27;;;;;;;8.51;100.00;99004.34;4925487;28;20405;-57
2023/03/20 02:23:11;;;;;;;2.57;1.23;;;;;;;8.51;100.00;99003.50;4921336;28;20229;-56
2023/03/20 02:26:41;;;;;;;2.17;1.30;;;;;;;8.55;100.00;98999.69;4921873;29;20244;-56
2023/03/20 02:29:28;;;;;;;2.93;1.10;;;;;;;8.50;100.00;99009.66;4900236;28;20236;-56
2023/03/20 02:32:19;;;;;;;2.07;1.37;;;;;;;8.52;100.00;99011.19;4939916;28;20728;-56
2023/03/20 02:35:05;;;;;;;2.90;1.20;;;;;;;8.56;100.00;99016.94;4939781;28;20247;-56
2023/03/20 02:38:10;;;;;;;2.67;1.23;;;;;;;8.55;100.00;99010.09;4937104;28;20244;-56
2023/03/20 02:40:45;;;;;;;2.20;1.30;;;;;;;8.64;100.00;99013.72;4919798;28;20393;-55
2023/03/20 02:43:20;;;;;;;4.13;1.43;;;;;;;8.55;100.00;99021.34;4925338;28;20241;-53
2023/03/20 02:45:57;;;;;;;1.70;1.40;;;;;;;8.60;100.00;99022.75;4938151;28;20750;-55
2023/03/20 02:48:38;;;;;;;1.80;1.03;;;;;;;8.56;100.00;99025.59;4920694;29;20733;-53
2023/03/20 02:51:12;;;;;;;3.17;1.70;;;;;;;8.52;100.00;99025.97;4921909;28;20261;-53
2023/03/20 02:53:52;;;;;;;3.27;1.60;;;;;;;8.47;100.00;99021.13;4922138;28;20229;-56
2023/03/20 02:56:29;;;;;;;5.03;1.83;;;;;;;8.49;100.00;99026.22;4924755;29;20264;-56
2023/03/20 02:59:02;;;;;;;2.47;1.80;;;;;;;8.46;100.00;99022.06;4922970;28;20318;-55
2023/03/20 03:01:33;;;;;;;3.63;1.90;;;;;;;8.44;100.00;99025.78;4939997;28;20373;-55
2023/03/20 03:04:03;;;;;;;2.27;1.60;;;;;;;8.44;100.00;99020.56;4924510;28;20237;-56
2023/03/20 03:06:32;;;;;;;2.10;1.50;;;;;;;8.45;100.00;99024.81;4921743;28;20276;-56
2023/03/20 03:09:04;;;;;;;4.27;1.80;;;;;;;8.42;100.00;99026.72;4924645;28;20247;-55
2023/03/20 03:11:34;;;;;;;3.83;1.90;;;;;;;8.43;100.00;99027.53;4940381;28;20247;-56
2023/03/20 03:14:04;;;;;;;4.87;1.73;;;;;;;8.40;100.00;99023.44;4919368;29;20235;-56
2023/03/20 03:16:34;;;;;;;2.60;1.57;;;;;;;8.42;100.00;99031.09;4918819;29;20720;-54
2023/03/20 03:19:08;;;;;;;3.30;1.80;;;;;;;8.41;100.00;99032.03;4923237;28;20252;-56
2023/03/20 03:21:37;;;;;;;2.90;1.80;;;;;;;8.40;100.00;99031.22;4921616;29;20267;-56
2023/03/20 03:24:06;;;;;;;6.10;1.67;;;;;;;8.41;100.00;99029.44;4923944;28;20240;-56
2023/03/20 03:26:37;;;;;;;3.03;1.80;;;;;;;8.40;100.00;99033.84;4938730;28;20233;-56
2023/03/20 03:29:11;;;;;;;3.03;1.73;;;;;;;8.39;100.00;99036.53;4924920;28;20730;-56
2023/03/20 03:31:38;;;;;;;2.10;1.60;;;;;;;8.41;100.00;99037.25;4938086;28;20228;-56
2023/03/20 03:34:05;;;;;;;3.07;1.73;;;;;;;8.39;100.00;99041.75;4923868;28;20248;-56
2023/03/20 03:36:42;;;;;;;3.60;1.90;;;;;;;8.41;100.00;99038.09;4921684;28;20253;-56
2023/03/20 03:39:18;;;;;;;2.80;1.90;;;;;;;8.38;100.00;99035.72;4920904;28;20228;-56
2023/03/20 03:41:50;;;;;;;3.80;2.10;;;;;;;8.38;100.00;99038.34;4921260;29;20237;-56
2023/03/20 03:44:22;;;;;;;2.60;1.83;;;;;;;8.35;100.00;99033.38;4924050;28;20236;-56
2023/03/20 03:46:53;;;;;;;4.00;2.17;;;;;;;8.40;100.00;99030.38;4921707;29;20291;-56
2023/03/20 03:49:24;;;;;;;2.30;1.73;;;;;;;8.39;100.00;99037.38;4941120;28;20233;-56
2023/03/20 03:51:55;;;;;;;3.67;2.10;;;;;;;8.38;100.00;99024.50;4921133;28;20686;-54
2023/03/20 03:54:26;;;;;;;2.83;2.10;;;;;;;8.36;100.00;99029.84;4940453;28;20219;-56
2023/03/20 03:57:34;;;;;;;3.47;2.37;;;;;;;8.42;100.00;99023.28;4938261;28;20243;-56
2023/03/20 04:00:05;;;;;;;3.33;2.03;;;;;;;8.37;100.00;99023.69;4922215;28;20648;-57
2023/03/20 04:05:23;;;;;;;2.70;2.20;;;;;;;8.35;100.00;99020.38;4993680;23;20235;-56
2023/03/20 04:07:55;;;;;;;2.60;1.80;;;;;;;8.42;100.00;99029.31;4955264;28;21057;-53
2023/03/20 04:10:23;;;;;;;3.17;2.50;;;;;;;8.37;100.00;99025.44;4956483;28;20295;-56
2023/03/20 04:12:52;;;;;;;3.83;2.07;;;;;;;8.34;100.00;99029.13;4936539;28;20263;-56
2023/03/20 04:15:20;;;;;;;3.50;2.70;;;;;;;8.32;100.00;99030.19;4932195;28;20225;-56
2023/03/20 04:17:47;;;;;;;4.17;2.70;;;;;;;8.31;100.00;99033.75;4945731;23;20253;-57
2023/03/20 04:20:16;;;;;;;4.17;2.77;;;;;;;8.29;100.00;99028.69;4941954;28;20631;-57
2023/03/20 04:23:07;;;;;;;7.00;2.67;;;;;;;8.33;100.00;99034.44;5790506;23;21685;-63
2023/03/20 04:25:37;;;;;;;7.70;2.77;;;;;;;8.33;100.00;99031.84;4954562;28;20272;-63
2023/03/20 04:28:04;;;;;;;3.37;2.30;;;;;;;8.29;100.00;99036.50;4971398;28;20246;-63
2023/03/20 04:33:44;;;;;;;4.20;2.20;;;;;;;8.31;100.00;99044.16;4884473;29;20230;-56
2023/03/20 04:36:40;;;;;;;3.27;2.43;;;;;;;8.32;100.00;99057.03;4896952;29;20242;-59
2023/03/20 04:39:09;;;;;;;3.73;2.20;;;;;;;8.32;100.00;99059.66;4886821;29;20226;-56
2023/03/20 04:41:37;;;;;;;3.30;2.00;;;;;;;8.37;100.00;99060.09;4890984;29;20674;-57
2023/03/20 04:46:35;;;;;;;3.30;1.73;;;;;;;8.35;100.00;99059.41;4901419;29;20713;-58
2023/03/20 04:49:05;;;;;;;4.67;2.07;;;;;;;8.36;100.00;99066.25;4922017;29;20322;-58
2023/03/20 04:51:32;;;;;;;2.03;1.83;;;;;;;8.40;100.00;99057.25;4902689;29;20316;-58
2023/03/20 04:53:59;;;;;;;3.27;1.87;;;;;;;8.37;100.00;99052.28;4920953;29;20713;-58
2023/03/20 04:56:25;;;;;;;3.93;2.10;;;;;;;8.33;100.00;99047.44;4907212;29;20278;-55
2023/03/20 04:59:08;;;;;;;4.80;2.60;;;;;;;8.37;100.00;99043.66;4923112;29;20323;-58
2023/03/20 05:01:34;;;;;;;4.87;2.50;;;;;;;8.31;100.00;99039.78;4921559;29;20997;-58
2023/03/20 05:04:01;;;;;;;4.13;2.30;;;;;;;8.30;100.00;99039.91;4925021;29;20242;-56
2023/03/20 05:06:32;;;;;;;2.77;2.07;;;;;;;8.31;100.00;99042.38;4906522;29;20231;-59
2023/03/20 05:08:59;;;;;;;3.77;2.30;;;;;;;8.35;100.00;99045.56;4925291;29;20344;-57
2023/03/20 05:11:28;;;;;;;3.73;2.30;;;;;;;8.38;100.00;99047.91;4909032;29;20238;-54
2023/03/20 05:14:19;;;;;;;5.27;2.83;;;;;;;8.32;100.00;99053.59;4906185;29;20250;-56
2023/03/20 05:17:03;;;;;;;3.20;2.50;;;;;;;8.28;100.00;99063.44;4922086;29;20268;-58
2023/03/20 05:20:08;;;;;;;4.40;2.80;;;;;;;8.28;100.00;99061.66;4922438;29;20316;-55
2023/03/20 05:22:42;;;;;;;4.27;2.97;;;;;;;8.26;100.00;99063.56;4921646;29;20302;-57
2023/03/20 05:25:21;;;;;;;4.40;3.03;;;;;;;8.26;100.00;99058.34;4924319;29;20320;-57
2023/03/20 05:28:15;;;;;;;4.57;3.00;;;;;;;8.26;100.00;99054.94;4922077;29;20238;-56
2023/03/20 05:30:52;;;;;;;8.40;3.60;;;;;;;8.23;100.00;99055.19;4906331;29;20253;-58
2023/03/20 05:33:38;;;;;;;5.30;2.90;;;;;;;8.23;100.00;99057.78;4907059;29;20740;-58
2023/03/20 05:36:20;;;;;;;5.03;3.70;;;;;;;8.27;100.00;99059.19;4910623;29;20722;-58
2023/03/20 05:38:50;;;;;;;4.30;3.67;;;;;;;8.23;100.00;99058.59;4907866;29;20261;-58
2023/03/20 05:41:25;;;;;;;5.20;3.83;;;;;;;8.22;100.00;99067.34;4910053;29;20246;-57
2023/03/20 05:44:11;;;;;;;7.23;4.20;;;;;;;8.24;100.00;99056.84;4922166;29;20244;-58
2023/03/20 05:46:57;;;;;;;8.93;5.63;;;;;;;8.24;100.00;99064.66;4908288;29;20272;-58
2023/03/20 05:49:41;;;;;;;5.30;3.77;;;;;;;8.29;100.00;99065.09;4921466;29;20242;-57
2023/03/20 05:52:20;;;;;;;8.03;5.00;;;;;;;8.24;100.00;99060.25;4908228;29;20242;-58
2023/03/20 05:55:02;;;;;;;8.63;5.87;;;;;;;8.26;100.00;99067.94;4907786;29;20240;-58
2023/03/20 05:57:52;;;;;;;5.90;4.37;;;;;;;8.31;100.00;99081.41;4897047;29;20321;-57
2023/03/20 06:00:28;;;;;;;5.27;3.93;;;;;;;8.32;100.00;99071.81;4923802;29;20303;-58
2023/03/20 06:03:15;;;;;;;9.57;4.87;;;;;;;8.34;100.00;99072.50;4907553;29;20255;-56
2023/03/20 06:05:59;;;;;;;7.73;4.00;;;;;;;8.43;100.00;99074.38;4920752;29;20318;-57
2023/03/20 06:08:26;;;;;;;6.83;4.23;;;;;;;8.49;100.00;99067.84;4908812;29;20253;-56
2023/03/20 06:10:53;;;;;;;6.57;3.73;;;;;;;8.60;100.00;99075.59;4922062;29;21006;-58
2023/03/20 06:13:20;;;;;;;6.63;4.20;;;;;;;8.68;100.00;99078.38;4923696;29;20446;-59
2023/03/20 06:15:47;;;;;;;10.37;6.17;;;;;;;8.81;100.00;99080.81;4905029;29;20858;-55
2023/03/20 06:18:18;;;;;;;9.53;6.10;;;;;;;8.88;100.00;99088.91;4908493;29;20227;-58
2023/03/20 06:20:45;;;;;;;6.67;4.63;;;;;;;8.99;100.00;99090.63;4921152;29;20246;-57
2023/03/20 06:23:12;;;;;;;7.43;4.83;;;;;;;9.00;100.00;99098.31;4923163;29;20232;-56
2023/03/20 06:25:39;;;;;;;6.43;4.30;;;;;;;9.11;100.00;99091.38;4906805;29;20249;-58
2023/03/20 06:28:07;;;;;;;7.37;4.23;;;;;;;9.18;100.00;99094.25;4907795;29;20329;-58
2023/03/20 06:30:34;;;;;;;6.47;4.50;;;;;;;9.25;100.00;99082.38;4905562;29;20237;-56
2023/03/20 06:33:01;;;;;;;5.10;3.53;;;;;;;9.34;100.00;99094.63;4923650;29;20776;-57
2023/03/20 06:35:38;;;;;;;7.03;4.60;;;;;;;9.39;100.00;99102.88;4904664;29;20810;-58
2023/03/20 06:38:04;;;;;;;4.83;3.53;;;;;;;9.34;100.00;99106.84;4909487;29;20252;-57
2023/03/20 06:40:32;;;;;;;4.87;3.27;;;;;;;9.27;100.00;99109.97;4906365;29;20314;-57
2023/03/20 06:42:59;;;;;;;5.60;3.80;;;;;;;9.21;100.00;99109.63;4908603;29;20699;-58
2023/03/20 06:45:35;;;;;;;4.80;3.40;;;;;;;9.08;100.00;99118.47;4904888;29;20222;-58
2023/03/20 06:48:06;;;;;;;5.87;3.97;;;;;;;9.04;100.00;99122.28;4907505;29;20289;-57
2023/03/20 06:50:33;;;;;;;9.97;4.13;;;;;;;9.07;100.00;99121.22;4906623;29;20225;-58
2023/03/20 06:53:01;;;;;;;6.00;3.50;;;;;;;9.09;100.00;99127.94;4907963;29;20246;-59
2023/03/20 06:55:40;;;;;;;11.97;7.57;;;;;;;8.99;100.00;99133.13;4920147;29;20746;-58
2023/03/20 06:58:06;;;;;;;10.30;4.33;;;;;;;8.98;100.00;99136.66;4922357;29;20423;-58
2023/03/20 07:00:35;;;;;;;6.43;4.10;;;;;;;8.97;100.00;99132.41;4915726;29;20241;-59
2023/03/20 07:03:04;;;;;;;7.65;5.88;;;;;;;8.99;100.00;99151.34;4921557;29;20530;-56
2023/03/20 07:05:32;;;;;;;8.57;6.83;;;;;;;8.94;100.00;99142.28;4919023;29;20579;-56
2023/03/20 07:08:02;;;;;;;8.07;6.47;;;;;;;8.94;100.00;99150.91;4922834;29;20290;-57
2023/03/20 07:10:28;;;;;;;6.30;3.80;;;;;;;8.97;100.00;99155.03;4906640;29;20226;-58
2023/03/20 07:12:56;;;;;;;4.73;3.17;;;;;;;9.04;100.00;99156.16;4905056;29;20234;-57
2023/03/20 07:15:24;;;;;;;5.73;2.90;;;;;;;8.99;100.00;99159.16;4906721;29;20224;-57
2023/03/20 07:17:51;;;;;;;9.83;7.10;;;;;;;8.93;100.00;99153.63;4920699;29;20592;-57
2023/03/20 07:20:18;;;;;;;7.00;3.30;;;;;;;8.97;100.00;99163.66;4923637;29;20247;-57
2023/03/20 07:22:48;;;;;;;4.83;3.37;;;;;;;9.01;100.00;99161.59;4904631;29;20319;-57
2023/03/20 07:25:25;;;;;;;12.57;7.30;;;;;;;9.07;100.00;99162.91;4922958;29;20250;-54
2023/03/20 07:27:52;;;;;;;11.97;7.00;;;;;;;9.08;100.00;99154.94;4918492;29;20246;-57
2023/03/20 07:30:22;;;;;;;8.30;4.87;;;;;;;9.11;100.00;99151.28;4906914;29;20228;-56
2023/03/20 07:32:49;;;;;;;13.20;11.03;;;;;;;9.19;100.00;99158.44;4920289;29;20239;-58
2023/03/20 07:35:16;;;;;;;4.37;3.30;;;;;;;9.25;100.00;99161.34;4906976;29;20242;-57
2023/03/20 07:37:44;;;;;;;5.30;3.17;;;;;;;9.20;100.00;99155.72;4904733;29;20242;-55
2023/03/20 07:40:12;;;;;;;6.87;4.80;;;;;;;9.23;100.00;99163.28;4913129;29;20232;-57
2023/03/20 07:42:54;;;;;;;17.47;11.57;;;;;;;9.26;100.00;99149.16;4920271;29;20243;-55
2023/03/20 07:45:49;;;;;;;9.07;7.10;;;;;;;9.23;100.00;99144.19;4904688;29;20229;-57
2023/03/20 07:48:19;;;;;;;9.77;7.37;;;;;;;9.26;100.00;99136.97;4922440;29;20882;-57
2023/03/20 07:50:46;;;;;;;9.27;6.40;;;;;;;9.35;100.00;99142.34;4904726;29;20926;-56
2023/03/20 07:53:13;;;;;;;5.47;3.73;;;;;;;9.56;100.00;99147.50;4922497;29;20235;-56
2023/03/20 07:55:39;;;;;;;5.30;3.53;;;;;;;9.82;98.88;99150.47;4905813;29;20266;-57
2023/03/20 07:58:08;;;;;;;5.57;3.77;;;;;;;10.17;95.92;99148.34;4922952;29;20240;-57
2023/03/20 08:00:35;;;;;;;6.03;3.67;;;;;;;10.31;93.29;99145.34;4920212;29;20246;-58
2023/03/20 08:03:01;;;;;;;7.90;5.20;;;;;;;10.21;94.86;99144.50;4908115;29;20244;-56
2023/03/20 08:05:28;;;;;;;8.80;6.20;;;;;;;10.29;93.10;99138.63;4907844;29;20234;-56
2023/03/20 08:07:54;;;;;;;9.70;6.10;;;;;;;10.26;93.92;99136.28;4906365;29;20258;-54
2023/03/20 08:10:23;;;;;;;6.17;4.10;;;;;;;10.27;94.29;99138.72;4922527;29;20283;-56
2023/03/20 08:12:49;;;;;;;4.80;3.00;;;;;;;10.23;94.29;99126.91;4906723;29;20661;-55
2023/03/20 08:15:18;;;;;;;9.37;7.13;;;;;;;10.20;95.87;99127.19;4908473;29;20222;-56
2023/03/20 08:17:44;;;;;;;4.23;3.10;;;;;;;10.13;93.68;99134.75;4905674;29;20231;-57
2023/03/20 08:20:13;;;;;;;5.97;3.37;;;;;;;10.11;93.87;99133.22;4907622;29;20239;-56
2023/03/20 08:22:40;;;;;;;6.70;4.67;;;;;;;10.16;93.13;99129.25;4904204;29;20238;-55
2023/03/20 08:25:08;;;;;;;5.30;3.27;;;;;;;10.24;93.30;99139.00;4907054;29;20290;-57
2023/03/20 08:27:34;;;;;;;7.17;4.17;;;;;;;10.10;92.75;99148.06;4903967;29;20230;-56
2023/03/20 08:30:01;;;;;;;4.93;3.87;;;;;;;9.96;93.56;99157.09;4907965;29;20648;-55
2023/03/20 08:32:29;;;;;;;5.20;3.60;;;;;;;9.84;94.09;99158.16;4908517;29;20334;-57
2023/03/20 08:34:56;;;;;;;7.80;4.30;;;;;;;9.78;95.27;99159.50;4909946;29;20279;-57
2023/03/20 08:37:23;;;;;;;6.50;4.53;;;;;;;9.83;93.08;99161.72;4925573;29;20257;-58
2023/03/20 08:39:49;;;;;;;6.73;4.00;;;;;;;9.76;94.57;99161.41;4909638;29;20287;-58
2023/03/20 08:42:16;;;;;;;7.93;3.83;;;;;;;9.94;92.72;99166.00;4911461;29;20246;-57
2023/03/20 08:44:42;;;;;;;5.53;4.23;;;;;;;10.13;92.67;99167.81;4909173;29;20779;-57
2023/03/20 08:47:10;;;;;;;7.43;3.90;;;;;;;10.29;90.84;99164.72;4912402;29;20247;-58
2023/03/20 08:49:38;;;;;;;6.87;3.53;;;;;;;10.47;90.34;99170.09;4909062;29;20938;-57
2023/03/20 08:52:05;;;;;;;5.67;4.00;;;;;;;10.26;93.38;99164.97;4910207;29;20236;-57
2023/03/20 08:54:32;;;;;;;5.03;3.80;;;;;;;10.35;90.60;99166.78;4907620;29;20715;-57
2023/03/20 08:56:59;;;;;;;6.37;4.90;;;;;;;10.38;93.97;99165.66;4911623;29;20302;-56
2023/03/20 08:59:25;;;;;;;6.53;3.87;;;;;;;10.58;90.56;99169.16;4910372;29;21453;-58
2023/03/20 09:01:52;;;;;;;7.80;4.13;;;;;;;10.54;90.83;99173.00;4909183;29;20249;-55
2023/03/20 09:04:19;;;;;;;5.53;4.30;;;;;;;10.69;89.58;99176.81;4911139;29;20250;-57
2023/03/20 09:06:49;;;;;;;6.37;4.27;;;;;;;10.86;87.74;99180.53;4908273;29;20715;-54
2023/03/20 09:09:18;;;;;;;5.00;3.60;;;;;;;11.18;87.33;99189.00;4911200;29;20293;-57
2023/03/20 09:11:45;;;;;;;8.13;4.33;;;;;;;11.44;84.89;99176.13;4908282;29;20246;-56
2023/03/20 09:14:11;;;;;;;6.20;3.80;;;;;;;11.45;85.96;99177.78;4910714;29;20237;-57
2023/03/20 09:16:38;;;;;;;6.93;4.57;;;;;;;11.72;85.17;99178.78;4907781;29;20238;-57
2023/03/20 09:19:05;;;;;;;6.37;4.23;;;;;;;11.97;84.03;99176.47;4911118;29;20235;-57
2023/03/20 09:21:32;;;;;;;6.63;4.43;;;;;;;12.05;84.21;99171.38;4904005;29;20285;-57
2023/03/20 09:24:00;;;;;;;6.77;4.03;;;;;;;12.36;82.32;99173.63;4918301;29;20239;-58
2023/03/20 09:26:26;;;;;;;5.60;4.20;;;;;;;12.58;80.33;99183.81;4910260;29;20314;-58
2023/03/20 09:28:53;;;;;;;7.40;4.30;;;;;;;12.08;75.25;99183.31;4909225;29;20248;-57
2023/03/20 09:31:19;;;;;;;7.47;3.97;;;;;;;11.77;77.25;99189.66;4911121;29;20286;-58
2023/03/20 09:33:46;;;;;;;5.70;4.27;;;;;;;11.04;82.34;99193.72;4908559;29;20239;-58
2023/03/20 09:36:14;;;;;;;5.37;3.63;;;;;;;11.32;85.61;99199.03;4910895;29;20226;-57
2023/03/20 09:38:41;;;;;;;7.70;3.83;;;;;;;11.41;84.13;99197.34;4908067;29;20281;-57
2023/03/20 09:41:16;;;;;;;8.50;4.50;;;;;;;11.29;84.46;99201.91;4910594;29;20239;-56
2023/03/20 09:43:56;;;;;;;6.77;4.50;;;;;;;11.31;78.98;99199.16;4906911;29;20247;-57
2023/03/20 09:46:39;;;;;;;5.77;4.20;;;;;;;11.09;81.41;99208.97;4909699;29;20242;-57
2023/03/20 09:49:16;;;;;;;11.80;4.97;;;;;;;11.11;81.12;99207.06;4908345;29;20227;-57
2023/03/20 09:51:48;;;;;;;9.77;5.87;;;;;;;10.97;80.93;99210.09;4906271;29;20239;-58
2023/03/20 09:54:22;;;;;;;9.57;5.77;;;;;;;10.99;81.44;99216.00;4910293;29;20781;-57
2023/03/20 09:56:50;;;;;;;10.90;6.23;;;;;;;10.62;83.69;99210.50;4907280;29;20300;-54
2023/03/20 09:59:19;;;;;;;10.30;6.97;;;;;;;10.82;82.37;99204.44;4910568;29;20333;-56
2023/03/20 10:01:50;;;;;;;8.23;5.83;;;;;;;10.86;82.02;99204.03;4907574;29;20250;-58
2023/03/20 10:04:16;;;;;;;10.47;6.37;;;;;;;10.90;83.27;99207.19;4910187;29;20235;-57
2023/03/20 10:06:43;;;;;;;10.23;5.73;;;;;;;10.98;81.60;99204.72;4907708;29;20277;-57
2023/03/20 10:09:21;;;;;;;11.40;6.87;;;;;;;10.74;80.99;99203.34;4909823;29;20693;-57
2023/03/20 10:12:05;;;;;;;10.67;7.00;;;;;;;10.73;82.85;99206.13;4907133;29;20242;-57
2023/03/20 10:14:43;;;;;;;10.20;6.50;;;;;;;10.93;81.55;99209.53;4907427;29;20234;-58
2023/03/20 10:17:36;;;;;;;10.27;6.97;;;;;;;10.97;82.50;99207.47;4909827;29;20286;-58
2023/03/20 10:20:12;;;;;;;9.77;6.63;;;;;;;11.00;80.60;99202.78;4907488;29;20293;-58
2023/03/20 10:22:44;;;;;;;10.13;6.17;;;;;;;10.96;81.88;99198.00;4906787;29;20809;-57
2023/03/20 10:25:22;;;;;;;11.23;6.83;;;;;;;10.89;80.79;99197.72;4908766;29;20724;-58
2023/03/20 10:27:57;;;;;;;10.70;6.80;;;;;;;10.86;81.67;99192.75;4906641;29;20238;-58
2023/03/20 10:30:43;;;;;;;10.97;7.33;;;;;;;10.85;81.73;99186.72;4908645;29;20724;-57
2023/03/20 10:33:25;;;;;;;11.43;7.33;;;;;;;11.28;79.14;99191.59;4907678;29;20738;-58
2023/03/20 10:36:01;;;;;;;11.37;6.20;;;;;;;11.56;80.83;99187.25;4906974;29;20258;-57
2023/03/20 10:38:37;;;;;;;9.93;6.43;;;;;;;12.04;76.01;99195.88;4908784;29;20234;-57
2023/03/20 10:41:12;;;;;;;12.03;6.80;;;;;;;12.35;75.89;99195.53;4921696;29;20232;-58
2023/03/20 10:43:43;;;;;;;9.67;6.33;;;;;;;12.43;76.41;99204.44;4906533;29;20777;-57
2023/03/20 10:46:13;;;;;;;10.50;6.57;;;;;;;12.48;75.35;99202.22;4909428;29;20233;-58
2023/03/20 10:48:47;;;;;;;9.13;6.33;;;;;;;12.53;75.87;99205.19;4906434;29;20313;-57
2023/03/20 10:51:17;;;;;;;9.43;6.17;;;;;;;12.73;76.05;99198.00;4923256;29;20305;-54
2023/03/20 10:53:48;;;;;;;10.93;6.60;;;;;;;12.84;74.45;99192.53;4906276;29;20240;-57
2023/03/20 10:56:27;;;;;;;10.50;6.20;;;;;;;12.95;72.93;99198.50;4909063;29;20281;-57
2023/03/20 10:59:01;;;;;;;9.40;5.80;;;;;;;13.13;72.75;99201.13;4905796;29;20300;-57
2023/03/20 11:01:27;;;;;;;9.70;6.03;;;;;;;13.28;73.40;99189.06;4906305;29;20729;-57
2023/03/20 11:03:54;;;;;;;9.77;6.57;;;;;;;13.17;71.96;99199.84;4897857;29;20236;-57
2023/03/20 11:06:27;;;;;;;8.70;5.97;;;;;;;12.93;71.24;99200.47;4910707;29;20315;-58
2023/03/20 11:08:54;;;;;;;8.17;5.43;;;;;;;13.25;69.19;99186.75;4905480;29;20284;-55
2023/03/20 11:11:26;;;;;;;11.70;6.20;;;;;;;13.02;69.46;99193.50;4907546;29;20231;-58
2023/03/20 11:13:54;;;;;;;9.82;7.18;;;;;;;13.22;69.71;99191.50;4902675;29;20952;-58
2023/03/20 11:16:24;;;;;;;11.97;6.57;;;;;;;13.16;73.54;99187.72;4906304;29;20710;-56
2023/03/20 11:18:52;;;;;;;9.50;5.57;;;;;;;13.28;72.05;99181.22;4905910;29;20722;-58
2023/03/20 11:21:22;;;;;;;7.13;5.23;;;;;;;13.39;71.67;99189.78;4907190;29;20258;-58
2023/03/20 11:23:50;;;;;;;8.47;5.50;;;;;;;13.08;71.69;99180.59;4903995;29;20319;-56
2023/03/20 11:26:19;;;;;;;7.53;5.97;;;;;;;13.17;71.89;99183.28;4908084;29;20219;-58
2023/03/20 11:28:52;;;;;;;7.93;5.43;;;;;;;13.13;69.83;99185.41;4906529;29;20807;-58
2023/03/20 11:31:30;;;;;;;7.73;5.00;;;;;;;13.12;69.29;99181.94;4907909;29;20234;-57
2023/03/20 11:34:10;;;;;;;8.83;5.17;;;;;;;13.00;69.65;99164.81;4900974;29;20237;-58
2023/03/20 11:36:39;;;;;;;6.40;4.67;;;;;;;13.12;69.36;99168.84;4903429;29;20226;-59
2023/03/20 11:39:11;;;;;;;8.13;4.57;;;;;;;13.28;67.84;99164.69;4907502;29;20422;-57
2023/03/20 11:41:46;;;;;;;7.30;5.33;;;;;;;13.26;67.28;99158.75;4905115;29;20225;-58
2023/03/20 11:44:24;;;;;;;7.87;5.30;;;;;;;13.50;67.42;99160.72;4907416;29;20248;-59
2023/03/20 11:46:57;;;;;;;7.10;4.53;;;;;;;14.04;67.71;99164.88;4904767;29;22819;-59
2023/03/20 11:49:26;;;;;;;5.73;4.30;;;;;;;14.35;65.83;99159.00;4905867;29;20558;-59
2023/03/20 11:51:55;;;;;;;7.47;5.07;;;;;;;14.42;64.01;99167.88;4905378;29;20237;-59
2023/03/20 11:54:25;;;;;;;6.03;4.63;;;;;;;14.11;63.61;99167.66;4905929;29;20791;-59
2023/03/20 11:56:54;;;;;;;7.00;4.30;;;;;;;14.02;62.11;99166.81;4920081;29;28497;-57
2023/03/20 11:59:21;;;;;;;7.17;4.63;;;;;;;13.56;65.38;99167.16;4907510;29;20247;-58
2023/03/20 12:01:51;;;;;;;6.90;4.67;;;;;;;13.23;68.02;99167.78;4903412;29;20646;-58
2023/03/20 12:04:20;;;;;;;9.30;5.90;;;;;;;13.20;69.59;99167.25;4906411;29;20614;-59